sensor_id;sensor_type;location;lat;lon;timestamp;temperature;humidity
64855;DHT22;51321;50.428;8.378;2023-04-02T00:02:35;9.20;99.90
64855;DHT22;51321;50.428;8.378;2023-04-02T00:05:42;9.10;99.90
64855;DHT22;51321;50.428;8.378;2023-04-02T00:08:36;9.10;99.90
64855;DHT22;51321;50.428;8.378;2023-04-02T00:11:24;9.10;99.90
64855;DHT22;51321;50.428;8.378;2023-04-02T00:14:12;9.20;99.90
64855;DHT22;51321;50.428;8.378;2023-04-02T00:16:58;9.20;99.90
64855;DHT22;51321;50.428;8.378;2023-04-02T00:19:44;9.40;99.90
64855;DHT22;51321;50.428;8.378;2023-04-02T00:22:28;9.40;99.90
64855;DHT22;51321;50.428;8.378;2023-04-02T00:25:11;9.40;99.90
64855;DHT22;51321;50.428;8.378;2023-04-02T00:27:57;9.20;99.90
64855;DHT22;51321;50.428;8.378;2023-04-02T00:30:44;9.10;99.90
64855;DHT22;51321;50.428;8.378;2023-04-02T00:33:27;9.10;99.90
64855;DHT22;51321;50.428;8.378;2023-04-02T00:36:10;9.00;99.90
64855;DHT22;51321;50.428;8.378;2023-04-02T00:38:54;8.90;99.90
64855;DHT22;51321;50.428;8.378;2023-04-02T00:41:37;8.90;99.90
64855;DHT22;51321;50.428;8.378;2023-04-02T00:44:25;9.00;99.90
64855;DHT22;51321;50.428;8.378;2023-04-02T00:47:13;8.90;99.90
64855;DHT22;51321;50.428;8.378;2023-04-02T00:49:56;9.00;99.90
64855;DHT22;51321;50.428;8.378;2023-04-02T00:52:41;8.90;99.90
64855;DHT22;51321;50.428;8.378;2023-04-02T00:55:23;8.90;99.90
64855;DHT22;51321;50.428;8.378;2023-04-02T00:58:11;8.90;99.90
64855;DHT22;51321;50.428;8.378;2023-04-02T01:00:56;8.90;99.90
64855;DHT22;51321;50.428;8.378;2023-04-02T01:03:41;8.90;99.90
64855;DHT22;51321;50.428;8.378;2023-04-02T01:06:25;8.90;99.90
64855;DHT22;51321;50.428;8.378;2023-04-02T01:09:13;9.00;99.90
64855;DHT22;51321;50.428;8.378;2023-04-02T01:12:07;9.10;99.90
64855;DHT22;51321;50.428;8.378;2023-04-02T01:15:00;9.20;99.90
64855;DHT22;51321;50.428;8.378;2023-04-02T01:17:47;9.20;99.90
64855;DHT22;51321;50.428;8.378;2023-04-02T01:20:44;9.20;99.90
64855;DHT22;51321;50.428;8.378;2023-04-02T01:23:29;9.20;99.90
64855;DHT22;51321;50.428;8.378;2023-04-02T01:26:15;9.20;99.90
64855;DHT22;51321;50.428;8.378;2023-04-02T01:29:01;9.20;99.90
64855;DHT22;51321;50.428;8.378;2023-04-02T01:31:44;9.20;99.90
64855;DHT22;51321;50.428;8.378;2023-04-02T01:34:30;9.20;99.90
64855;DHT22;51321;50.428;8.378;2023-04-02T01:37:19;9.20;99.90
64855;DHT22;51321;50.428;8.378;2023-04-02T01:40:06;9.10;99.90
64855;DHT22;51321;50.428;8.378;2023-04-02T01:42:51;9.10;99.90
64855;DHT22;51321;50.428;8.378;2023-04-02T01:45:36;9.10;99.90
64855;DHT22;51321;50.428;8.378;2023-04-02T01:48:20;9.30;99.90
64855;DHT22;51321;50.428;8.378;2023-04-02T01:51:05;9.30;99.90
64855;DHT22;51321;50.428;8.378;2023-04-02T01:53:47;9.30;99.90
64855;DHT22;51321;50.428;8.378;2023-04-02T01:56:37;9.20;99.90
64855;DHT22;51321;50.428;8.378;2023-04-02T01:59:21;9.20;99.90
64855;DHT22;51321;50.428;8.378;2023-04-02T02:02:11;9.20;99.90
64855;DHT22;51321;50.428;8.378;2023-04-02T02:04:54;9.20;99.90
64855;DHT22;51321;50.428;8.378;2023-04-02T02:07:36;9.20;99.90
64855;DHT22;51321;50.428;8.378;2023-04-02T02:10:21;9.30;99.90
64855;DHT22;51321;50.428;8.378;2023-04-02T02:13:04;9.20;99.90
64855;DHT22;51321;50.428;8.378;2023-04-02T02:15:48;9.20;99.90
64855;DHT22;51321;50.428;8.378;2023-04-02T02:18:39;9.30;99.90
64855;DHT22;51321;50.428;8.378;2023-04-02T02:21:27;9.30;99.90
64855;DHT22;51321;50.428;8.378;2023-04-02T02:24:13;9.40;99.90
64855;DHT22;51321;50.428;8.378;2023-04-02T02:27:03;9.50;99.90
64855;DHT22;51321;50.428;8.378;2023-04-02T02:29:50;9.50;99.90
64855;DHT22;51321;50.428;8.378;2023-04-02T02:32:33;9.40;99.90
64855;DHT22;51321;50.428;8.378;2023-04-02T02:35:19;9.40;99.90
64855;DHT22;51321;50.428;8.378;2023-04-02T02:38:18;9.30;99.90
64855;DHT22;51321;50.428;8.378;2023-04-02T02:41:11;9.30;99.90
64855;DHT22;51321;50.428;8.378;2023-04-02T02:43:59;9.20;99.90
64855;DHT22;51321;50.428;8.378;2023-04-02T02:46:42;9.20;99.90
64855;DHT22;51321;50.428;8.378;2023-04-02T02:49:25;9.20;99.90
64855;DHT22;51321;50.428;8.378;2023-04-02T02:52:14;9.30;99.90
64855;DHT22;51321;50.428;8.378;2023-04-02T02:55:08;9.30;99.90
64855;DHT22;51321;50.428;8.378;2023-04-02T02:58:23;9.30;99.90
64855;DHT22;51321;50.428;8.378;2023-04-02T03:01:32;9.30;99.90
64855;DHT22;51321;50.428;8.378;2023-04-02T03:04:18;9.30;99.90
64855;DHT22;51321;50.428;8.378;2023-04-02T03:07:02;9.30;99.90
64855;DHT22;51321;50.428;8.378;2023-04-02T03:09:48;9.30;99.90
64855;DHT22;51321;50.428;8.378;2023-04-02T03:12:34;9.30;99.90
64855;DHT22;51321;50.428;8.378;2023-04-02T03:15:20;9.30;99.90
64855;DHT22;51321;50.428;8.378;2023-04-02T03:18:07;9.30;99.90
64855;DHT22;51321;50.428;8.378;2023-04-02T03:20:55;9.30;99.90
64855;DHT22;51321;50.428;8.378;2023-04-02T03:23:39;9.20;99.90
64855;DHT22;51321;50.428;8.378;2023-04-02T03:26:28;9.20;99.90
64855;DHT22;51321;50.428;8.378;2023-04-02T03:29:13;9.20;99.90
64855;DHT22;51321;50.428;8.378;2023-04-02T03:31:58;9.20;99.90
64855;DHT22;51321;50.428;8.378;2023-04-02T03:34:40;9.20;99.90
64855;DHT22;51321;50.428;8.378;2023-04-02T03:37:25;9.20;99.90
64855;DHT22;51321;50.428;8.378;2023-04-02T03:40:07;9.20;99.90
64855;DHT22;51321;50.428;8.378;2023-04-02T03:42:52;9.20;99.90
64855;DHT22;51321;50.428;8.378;2023-04-02T03:45:40;9.20;99.90
64855;DHT22;51321;50.428;8.378;2023-04-02T03:48:23;9.20;99.90
64855;DHT22;51321;50.428;8.378;2023-04-02T03:51:11;9.20;99.90
64855;DHT22;51321;50.428;8.378;2023-04-02T03:53:55;9.30;99.90
64855;DHT22;51321;50.428;8.378;2023-04-02T03:56:36;9.30;99.90
64855;DHT22;51321;50.428;8.378;2023-04-02T03:59:32;9.30;99.90
64855;DHT22;51321;50.428;8.378;2023-04-02T04:02:18;9.30;99.90
64855;DHT22;51321;50.428;8.378;2023-04-02T04:05:04;9.40;99.90
64855;DHT22;51321;50.428;8.378;2023-04-02T04:07:48;9.30;99.90
64855;DHT22;51321;50.428;8.378;2023-04-02T04:10:31;9.40;99.90
64855;DHT22;51321;50.428;8.378;2023-04-02T04:13:14;9.50;99.90
64855;DHT22;51321;50.428;8.378;2023-04-02T04:16:00;9.40;99.90
64855;DHT22;51321;50.428;8.378;2023-04-02T04:18:43;9.40;99.90
64855;DHT22;51321;50.428;8.378;2023-04-02T04:21:29;9.30;99.90
64855;DHT22;51321;50.428;8.378;2023-04-02T04:24:22;9.30;99.90
64855;DHT22;51321;50.428;8.378;2023-04-02T04:27:14;9.10;99.90
64855;DHT22;51321;50.428;8.378;2023-04-02T04:30:03;8.90;99.90
64855;DHT22;51321;50.428;8.378;2023-04-02T04:32:52;8.80;99.90
64855;DHT22;51321;50.428;8.378;2023-04-02T04:35:37;8.70;99.90
64855;DHT22;51321;50.428;8.378;2023-04-02T04:38:27;8.70;99.90
64855;DHT22;51321;50.428;8.378;2023-04-02T04:41:12;8.60;99.90
64855;DHT22;51321;50.428;8.378;2023-04-02T04:43:58;8.60;99.90
64855;DHT22;51321;50.428;8.378;2023-04-02T04:46:43;8.50;99.90
64855;DHT22;51321;50.428;8.378;2023-04-02T04:49:28;8.50;99.90
64855;DHT22;51321;50.428;8.378;2023-04-02T04:52:13;8.40;99.90
64855;DHT22;51321;50.428;8.378;2023-04-02T04:54:58;8.30;99.90
64855;DHT22;51321;50.428;8.378;2023-04-02T04:57:41;8.40;99.90
64855;DHT22;51321;50.428;8.378;2023-04-02T05:00:28;8.30;99.90
64855;DHT22;51321;50.428;8.378;2023-04-02T05:03:14;8.30;99.90
64855;DHT22;51321;50.428;8.378;2023-04-02T05:06:02;8.30;99.90
64855;DHT22;51321;50.428;8.378;2023-04-02T05:08:46;8.20;99.90
64855;DHT22;51321;50.428;8.378;2023-04-02T05:11:33;8.20;99.90
64855;DHT22;51321;50.428;8.378;2023-04-02T05:14:21;8.10;99.90
64855;DHT22;51321;50.428;8.378;2023-04-02T05:17:04;8.10;99.90
64855;DHT22;51321;50.428;8.378;2023-04-02T05:19:47;8.00;99.90
64855;DHT22;51321;50.428;8.378;2023-04-02T05:22:33;8.00;99.90
64855;DHT22;51321;50.428;8.378;2023-04-02T05:25:19;8.00;99.90
64855;DHT22;51321;50.428;8.378;2023-04-02T05:28:02;7.90;99.90
64855;DHT22;51321;50.428;8.378;2023-04-02T05:30:46;7.90;99.90
64855;DHT22;51321;50.428;8.378;2023-04-02T05:33:37;7.80;99.90
64855;DHT22;51321;50.428;8.378;2023-04-02T05:36:21;7.80;99.90
64855;DHT22;51321;50.428;8.378;2023-04-02T05:39:09;7.90;99.90
64855;DHT22;51321;50.428;8.378;2023-04-02T05:42:00;7.80;99.90
64855;DHT22;51321;50.428;8.378;2023-04-02T05:45:15;7.80;99.90
64855;DHT22;51321;50.428;8.378;2023-04-02T05:47:59;7.60;99.90
64855;DHT22;51321;50.428;8.378;2023-04-02T05:50:47;7.60;99.90
64855;DHT22;51321;50.428;8.378;2023-04-02T05:53:36;7.60;99.90
64855;DHT22;51321;50.428;8.378;2023-04-02T05:56:20;7.60;99.90
64855;DHT22;51321;50.428;8.378;2023-04-02T05:59:05;7.60;99.90
64855;DHT22;51321;50.428;8.378;2023-04-02T06:01:49;7.60;99.90
64855;DHT22;51321;50.428;8.378;2023-04-02T06:04:43;7.50;99.90
64855;DHT22;51321;50.428;8.378;2023-04-02T06:07:27;7.50;99.90
64855;DHT22;51321;50.428;8.378;2023-04-02T06:10:10;7.50;99.90
64855;DHT22;51321;50.428;8.378;2023-04-02T06:12:55;7.50;99.90
64855;DHT22;51321;50.428;8.378;2023-04-02T06:18:53;7.40;99.90
64855;DHT22;51321;50.428;8.378;2023-04-02T06:21:39;7.40;99.90
64855;DHT22;51321;50.428;8.378;2023-04-02T06:24:26;7.50;99.90
64855;DHT22;51321;50.428;8.378;2023-04-02T06:27:09;7.50;99.90
64855;DHT22;51321;50.428;8.378;2023-04-02T06:29:56;7.50;99.90
64855;DHT22;51321;50.428;8.378;2023-04-02T06:32:41;7.60;99.90
64855;DHT22;51321;50.428;8.378;2023-04-02T06:35:25;7.50;99.90
64855;DHT22;51321;50.428;8.378;2023-04-02T06:38:13;7.50;99.90
64855;DHT22;51321;50.428;8.378;2023-04-02T06:40:57;7.40;99.90
64855;DHT22;51321;50.428;8.378;2023-04-02T06:43:46;7.30;99.90
64855;DHT22;51321;50.428;8.378;2023-04-02T06:47:01;7.30;99.90
64855;DHT22;51321;50.428;8.378;2023-04-02T06:49:44;7.20;99.90
64855;DHT22;51321;50.428;8.378;2023-04-02T06:52:27;7.20;99.90
64855;DHT22;51321;50.428;8.378;2023-04-02T06:55:19;7.10;99.90
64855;DHT22;51321;50.428;8.378;2023-04-02T06:58:01;7.20;99.90
64855;DHT22;51321;50.428;8.378;2023-04-02T07:00:42;7.20;99.90
64855;DHT22;51321;50.428;8.378;2023-04-02T07:03:34;7.20;99.90
64855;DHT22;51321;50.428;8.378;2023-04-02T07:06:32;7.20;99.90
64855;DHT22;51321;50.428;8.378;2023-04-02T07:09:14;7.30;99.90
64855;DHT22;51321;50.428;8.378;2023-04-02T07:12:09;7.30;99.90
64855;DHT22;51321;50.428;8.378;2023-04-02T07:14:50;7.20;99.90
64855;DHT22;51321;50.428;8.378;2023-04-02T07:17:31;7.30;99.90
64855;DHT22;51321;50.428;8.378;2023-04-02T07:20:21;7.30;99.90
64855;DHT22;51321;50.428;8.378;2023-04-02T07:23:05;7.40;99.90
64855;DHT22;51321;50.428;8.378;2023-04-02T07:25:46;7.30;99.90
64855;DHT22;51321;50.428;8.378;2023-04-02T07:28:28;7.40;99.90
64855;DHT22;51321;50.428;8.378;2023-04-02T07:31:14;7.40;99.90
64855;DHT22;51321;50.428;8.378;2023-04-02T07:33:58;7.30;99.90
64855;DHT22;51321;50.428;8.378;2023-04-02T07:36:49;7.30;99.90
64855;DHT22;51321;50.428;8.378;2023-04-02T07:39:30;7.30;99.90
64855;DHT22;51321;50.428;8.378;2023-04-02T07:42:13;7.30;99.90
64855;DHT22;51321;50.428;8.378;2023-04-02T07:44:54;7.20;99.90
64855;DHT22;51321;50.428;8.378;2023-04-02T07:47:36;7.20;99.90
64855;DHT22;51321;50.428;8.378;2023-04-02T07:50:18;7.40;99.90
64855;DHT22;51321;50.428;8.378;2023-04-02T07:53:02;7.40;99.90
64855;DHT22;51321;50.428;8.378;2023-04-02T07:55:45;7.30;99.90
64855;DHT22;51321;50.428;8.378;2023-04-02T07:58:25;7.20;99.90
64855;DHT22;51321;50.428;8.378;2023-04-02T08:01:14;7.00;99.90
64855;DHT22;51321;50.428;8.378;2023-04-02T08:03:57;7.00;99.90
64855;DHT22;51321;50.428;8.378;2023-04-02T08:06:39;7.00;99.90
64855;DHT22;51321;50.428;8.378;2023-04-02T08:09:21;6.90;99.90
64855;DHT22;51321;50.428;8.378;2023-04-02T08:12:04;6.70;99.90
64855;DHT22;51321;50.428;8.378;2023-04-02T08:14:45;6.60;99.90
64855;DHT22;51321;50.428;8.378;2023-04-02T08:17:31;6.70;99.90
64855;DHT22;51321;50.428;8.378;2023-04-02T08:20:13;6.70;99.90
64855;DHT22;51321;50.428;8.378;2023-04-02T08:22:56;6.70;99.90
64855;DHT22;51321;50.428;8.378;2023-04-02T08:25:41;6.70;99.90
64855;DHT22;51321;50.428;8.378;2023-04-02T08:28:22;6.80;99.90
64855;DHT22;51321;50.428;8.378;2023-04-02T08:31:03;6.70;99.90
64855;DHT22;51321;50.428;8.378;2023-04-02T08:33:47;6.70;99.90
64855;DHT22;51321;50.428;8.378;2023-04-02T08:36:32;6.70;99.90
64855;DHT22;51321;50.428;8.378;2023-04-02T08:39:13;6.70;99.90
64855;DHT22;51321;50.428;8.378;2023-04-02T08:41:59;6.60;99.90
64855;DHT22;51321;50.428;8.378;2023-04-02T08:44:48;6.60;99.90
64855;DHT22;51321;50.428;8.378;2023-04-02T08:47:33;6.50;99.90
64855;DHT22;51321;50.428;8.378;2023-04-02T08:50:22;6.70;99.90
64855;DHT22;51321;50.428;8.378;2023-04-02T08:53:09;6.90;99.90
64855;DHT22;51321;50.428;8.378;2023-04-02T08:56:12;6.80;99.90
64855;DHT22;51321;50.428;8.378;2023-04-02T08:58:58;6.70;99.90
64855;DHT22;51321;50.428;8.378;2023-04-02T09:01:43;6.70;99.90
64855;DHT22;51321;50.428;8.378;2023-04-02T09:04:27;6.70;99.90
64855;DHT22;51321;50.428;8.378;2023-04-02T09:07:10;6.90;99.90
64855;DHT22;51321;50.428;8.378;2023-04-02T09:10:11;7.10;99.90
64855;DHT22;51321;50.428;8.378;2023-04-02T09:12:52;7.20;99.90
64855;DHT22;51321;50.428;8.378;2023-04-02T09:15:35;7.10;99.90
64855;DHT22;51321;50.428;8.378;2023-04-02T09:18:17;6.90;99.90
64855;DHT22;51321;50.428;8.378;2023-04-02T09:20:59;6.60;99.90
64855;DHT22;51321;50.428;8.378;2023-04-02T09:23:41;6.50;99.90
64855;DHT22;51321;50.428;8.378;2023-04-02T09:26:22;6.50;99.90
64855;DHT22;51321;50.428;8.378;2023-04-02T09:29:14;6.60;99.90
64855;DHT22;51321;50.428;8.378;2023-04-02T09:32:06;6.80;99.90
64855;DHT22;51321;50.428;8.378;2023-04-02T09:34:57;6.80;99.90
64855;DHT22;51321;50.428;8.378;2023-04-02T09:37:45;6.60;99.90
64855;DHT22;51321;50.428;8.378;2023-04-02T09:40:27;6.60;99.90
64855;DHT22;51321;50.428;8.378;2023-04-02T09:43:10;6.50;99.90
64855;DHT22;51321;50.428;8.378;2023-04-02T09:45:55;6.40;99.90
64855;DHT22;51321;50.428;8.378;2023-04-02T09:48:39;6.50;99.90
64855;DHT22;51321;50.428;8.378;2023-04-02T09:51:22;6.40;99.90
64855;DHT22;51321;50.428;8.378;2023-04-02T09:54:10;6.40;99.90
64855;DHT22;51321;50.428;8.378;2023-04-02T09:56:57;6.40;99.90
64855;DHT22;51321;50.428;8.378;2023-04-02T09:59:39;6.50;99.90
64855;DHT22;51321;50.428;8.378;2023-04-02T10:02:22;6.50;99.90
64855;DHT22;51321;50.428;8.378;2023-04-02T10:05:10;6.70;99.90
64855;DHT22;51321;50.428;8.378;2023-04-02T10:08:04;6.50;99.90
64855;DHT22;51321;50.428;8.378;2023-04-02T10:10:46;6.40;99.90
64855;DHT22;51321;50.428;8.378;2023-04-02T10:13:28;6.40;99.90
64855;DHT22;51321;50.428;8.378;2023-04-02T10:16:11;6.20;99.90
64855;DHT22;51321;50.428;8.378;2023-04-02T10:18:56;6.10;99.90
64855;DHT22;51321;50.428;8.378;2023-04-02T10:21:39;6.20;99.90
64855;DHT22;51321;50.428;8.378;2023-04-02T10:24:22;6.40;99.90
64855;DHT22;51321;50.428;8.378;2023-04-02T10:27:10;6.30;99.90
64855;DHT22;51321;50.428;8.378;2023-04-02T10:32:54;6.10;99.90
64855;DHT22;51321;50.428;8.378;2023-04-02T10:35:39;6.20;99.90
64855;DHT22;51321;50.428;8.378;2023-04-02T10:38:36;6.20;99.90
64855;DHT22;51321;50.428;8.378;2023-04-02T10:41:28;6.20;99.90
64855;DHT22;51321;50.428;8.378;2023-04-02T10:44:13;6.20;99.90
64855;DHT22;51321;50.428;8.378;2023-04-02T10:47:03;6.30;99.90
64855;DHT22;51321;50.428;8.378;2023-04-02T10:49:47;6.30;99.90
64855;DHT22;51321;50.428;8.378;2023-04-02T10:52:33;6.50;99.90
64855;DHT22;51321;50.428;8.378;2023-04-02T10:55:17;6.60;99.90
64855;DHT22;51321;50.428;8.378;2023-04-02T10:58:02;6.60;99.90
64855;DHT22;51321;50.428;8.378;2023-04-02T11:00:50;6.50;99.90
64855;DHT22;51321;50.428;8.378;2023-04-02T11:03:34;6.40;99.90
64855;DHT22;51321;50.428;8.378;2023-04-02T11:06:19;6.50;99.90
64855;DHT22;51321;50.428;8.378;2023-04-02T11:09:02;6.50;99.90
64855;DHT22;51321;50.428;8.378;2023-04-02T11:11:47;6.70;99.90
64855;DHT22;51321;50.428;8.378;2023-04-02T11:14:31;6.80;99.90
64855;DHT22;51321;50.428;8.378;2023-04-02T11:17:17;6.80;99.90
64855;DHT22;51321;50.428;8.378;2023-04-02T11:23:05;6.50;99.90
64855;DHT22;51321;50.428;8.378;2023-04-02T11:25:49;6.50;99.90
64855;DHT22;51321;50.428;8.378;2023-04-02T11:28:38;6.40;99.90
64855;DHT22;51321;50.428;8.378;2023-04-02T11:31:20;6.50;99.90
64855;DHT22;51321;50.428;8.378;2023-04-02T11:34:08;6.50;99.90
64855;DHT22;51321;50.428;8.378;2023-04-02T11:36:57;6.40;99.90
64855;DHT22;51321;50.428;8.378;2023-04-02T11:39:46;6.30;99.90
64855;DHT22;51321;50.428;8.378;2023-04-02T11:42:30;6.30;99.90
64855;DHT22;51321;50.428;8.378;2023-04-02T11:48:30;6.40;99.90
64855;DHT22;51321;50.428;8.378;2023-04-02T11:51:14;6.20;99.90
64855;DHT22;51321;50.428;8.378;2023-04-02T11:57:01;6.30;99.90
64855;DHT22;51321;50.428;8.378;2023-04-02T11:59:46;6.40;99.90
64855;DHT22;51321;50.428;8.378;2023-04-02T12:02:32;6.50;99.90
64855;DHT22;51321;50.428;8.378;2023-04-02T12:05:19;6.60;99.90
64855;DHT22;51321;50.428;8.378;2023-04-02T12:08:15;6.60;99.90
64855;DHT22;51321;50.428;8.378;2023-04-02T12:11:02;6.50;99.90
64855;DHT22;51321;50.428;8.378;2023-04-02T12:13:46;6.40;99.90
64855;DHT22;51321;50.428;8.378;2023-04-02T12:16:37;6.40;99.90
64855;DHT22;51321;50.428;8.378;2023-04-02T12:22:21;6.30;99.90
64855;DHT22;51321;50.428;8.378;2023-04-02T12:25:06;6.30;99.90
64855;DHT22;51321;50.428;8.378;2023-04-02T12:28:13;6.40;99.90
64855;DHT22;51321;50.428;8.378;2023-04-02T12:31:11;6.40;99.90
64855;DHT22;51321;50.428;8.378;2023-04-02T12:33:57;6.50;99.90
64855;DHT22;51321;50.428;8.378;2023-04-02T12:36:39;6.50;99.90
64855;DHT22;51321;50.428;8.378;2023-04-02T12:39:33;6.70;99.90
64855;DHT22;51321;50.428;8.378;2023-04-02T12:42:24;6.80;99.90
64855;DHT22;51321;50.428;8.378;2023-04-02T12:45:20;6.80;99.90
64855;DHT22;51321;50.428;8.378;2023-04-02T12:48:02;6.80;99.90
64855;DHT22;51321;50.428;8.378;2023-04-02T12:50:45;6.70;99.90
64855;DHT22;51321;50.428;8.378;2023-04-02T12:53:27;6.60;99.90
64855;DHT22;51321;50.428;8.378;2023-04-02T12:56:18;6.50;99.90
64855;DHT22;51321;50.428;8.378;2023-04-02T12:59:01;6.50;99.90
64855;DHT22;51321;50.428;8.378;2023-04-02T13:01:53;6.70;99.90
64855;DHT22;51321;50.428;8.378;2023-04-02T13:04:44;6.50;99.90
64855;DHT22;51321;50.428;8.378;2023-04-02T13:07:27;6.50;99.90
64855;DHT22;51321;50.428;8.378;2023-04-02T13:10:20;6.50;99.90
64855;DHT22;51321;50.428;8.378;2023-04-02T13:13:05;6.40;99.90
64855;DHT22;51321;50.428;8.378;2023-04-02T13:15:47;6.50;99.90
64855;DHT22;51321;50.428;8.378;2023-04-02T13:18:39;6.60;99.90
64855;DHT22;51321;50.428;8.378;2023-04-02T13:21:23;6.70;99.90
64855;DHT22;51321;50.428;8.378;2023-04-02T13:24:14;6.60;99.90
64855;DHT22;51321;50.428;8.378;2023-04-02T13:26:58;6.50;99.90
64855;DHT22;51321;50.428;8.378;2023-04-02T13:29:44;6.50;99.90
64855;DHT22;51321;50.428;8.378;2023-04-02T13:32:25;6.60;99.90
64855;DHT22;51321;50.428;8.378;2023-04-02T13:35:10;6.70;99.90
64855;DHT22;51321;50.428;8.378;2023-04-02T13:37:51;6.90;99.90
64855;DHT22;51321;50.428;8.378;2023-04-02T13:40:32;7.00;99.90
64855;DHT22;51321;50.428;8.378;2023-04-02T13:43:15;6.90;99.90
64855;DHT22;51321;50.428;8.378;2023-04-02T13:46:00;6.80;99.90
64855;DHT22;51321;50.428;8.378;2023-04-02T13:48:42;6.70;99.90
64855;DHT22;51321;50.428;8.378;2023-04-02T13:51:26;6.60;99.90
64855;DHT22;51321;50.428;8.378;2023-04-02T13:54:15;6.70;99.90
64855;DHT22;51321;50.428;8.378;2023-04-02T13:56:59;6.90;99.90
64855;DHT22;51321;50.428;8.378;2023-04-02T13:59:42;6.80;99.90
64855;DHT22;51321;50.428;8.378;2023-04-02T14:02:27;6.50;99.90
64855;DHT22;51321;50.428;8.378;2023-04-02T14:05:14;6.30;99.90
64855;DHT22;51321;50.428;8.378;2023-04-02T14:08:01;6.20;99.90
64855;DHT22;51321;50.428;8.378;2023-04-02T14:10:51;6.10;99.90
64855;DHT22;51321;50.428;8.378;2023-04-02T14:13:40;6.00;99.90
64855;DHT22;51321;50.428;8.378;2023-04-02T14:16:32;5.90;99.90
64855;DHT22;51321;50.428;8.378;2023-04-02T14:19:23;5.90;99.90
64855;DHT22;51321;50.428;8.378;2023-04-02T14:22:12;5.90;99.90
64855;DHT22;51321;50.428;8.378;2023-04-02T14:25:02;5.90;99.90
64855;DHT22;51321;50.428;8.378;2023-04-02T14:27:49;5.90;99.90
64855;DHT22;51321;50.428;8.378;2023-04-02T14:30:36;5.90;99.90
64855;DHT22;51321;50.428;8.378;2023-04-02T14:33:23;5.90;99.90
64855;DHT22;51321;50.428;8.378;2023-04-02T14:36:15;6.10;99.90
64855;DHT22;51321;50.428;8.378;2023-04-02T14:38:59;6.20;99.90
64855;DHT22;51321;50.428;8.378;2023-04-02T14:41:44;6.20;99.90
64855;DHT22;51321;50.428;8.378;2023-04-02T14:44:29;6.20;99.90
64855;DHT22;51321;50.428;8.378;2023-04-02T14:47:13;6.00;99.90
64855;DHT22;51321;50.428;8.378;2023-04-02T14:49:57;6.00;99.90
64855;DHT22;51321;50.428;8.378;2023-04-02T14:52:48;6.00;99.90
64855;DHT22;51321;50.428;8.378;2023-04-02T14:55:31;6.10;99.90
64855;DHT22;51321;50.428;8.378;2023-04-02T14:58:18;6.10;99.90
64855;DHT22;51321;50.428;8.378;2023-04-02T15:01:03;5.90;99.90
64855;DHT22;51321;50.428;8.378;2023-04-02T15:03:50;5.90;99.90
64855;DHT22;51321;50.428;8.378;2023-04-02T15:06:34;5.90;99.90
64855;DHT22;51321;50.428;8.378;2023-04-02T15:09:21;5.70;99.90
64855;DHT22;51321;50.428;8.378;2023-04-02T15:12:07;5.60;99.90
64855;DHT22;51321;50.428;8.378;2023-04-02T15:14:49;5.60;99.90
64855;DHT22;51321;50.428;8.378;2023-04-02T15:17:35;5.70;99.90
64855;DHT22;51321;50.428;8.378;2023-04-02T15:20:17;5.70;99.90
64855;DHT22;51321;50.428;8.378;2023-04-02T15:23:00;5.80;99.90
64855;DHT22;51321;50.428;8.378;2023-04-02T15:25:44;5.80;99.90
64855;DHT22;51321;50.428;8.378;2023-04-02T15:28:28;5.80;99.90
64855;DHT22;51321;50.428;8.378;2023-04-02T15:31:12;5.80;99.90
64855;DHT22;51321;50.428;8.378;2023-04-02T15:33:56;5.70;99.90
64855;DHT22;51321;50.428;8.378;2023-04-02T15:36:46;5.70;99.90
64855;DHT22;51321;50.428;8.378;2023-04-02T15:39:33;5.70;99.90
64855;DHT22;51321;50.428;8.378;2023-04-02T15:42:22;5.60;99.90
64855;DHT22;51321;50.428;8.378;2023-04-02T15:45:20;5.70;99.90
64855;DHT22;51321;50.428;8.378;2023-04-02T15:48:25;5.60;99.90
64855;DHT22;51321;50.428;8.378;2023-04-02T15:51:15;5.50;99.90
64855;DHT22;51321;50.428;8.378;2023-04-02T15:54:02;5.70;99.90
64855;DHT22;51321;50.428;8.378;2023-04-02T15:56:49;5.70;99.90
64855;DHT22;51321;50.428;8.378;2023-04-02T15:59:42;5.60;99.90
64855;DHT22;51321;50.428;8.378;2023-04-02T16:02:34;5.70;99.90
64855;DHT22;51321;50.428;8.378;2023-04-02T16:05:20;5.50;99.90
64855;DHT22;51321;50.428;8.378;2023-04-02T16:08:13;5.50;99.90
64855;DHT22;51321;50.428;8.378;2023-04-02T16:10:56;5.50;99.90
64855;DHT22;51321;50.428;8.378;2023-04-02T16:13:38;5.60;99.90
64855;DHT22;51321;50.428;8.378;2023-04-02T16:16:21;5.60;99.90
64855;DHT22;51321;50.428;8.378;2023-04-02T16:19:10;5.60;99.90
64855;DHT22;51321;50.428;8.378;2023-04-02T16:21:55;5.50;99.90
64855;DHT22;51321;50.428;8.378;2023-04-02T16:24:39;5.50;99.90
64855;DHT22;51321;50.428;8.378;2023-04-02T16:27:22;5.40;99.90
64855;DHT22;51321;50.428;8.378;2023-04-02T16:30:15;5.40;99.90
64855;DHT22;51321;50.428;8.378;2023-04-02T16:33:04;5.30;99.90
64855;DHT22;51321;50.428;8.378;2023-04-02T16:35:50;5.40;99.90
64855;DHT22;51321;50.428;8.378;2023-04-02T16:38:43;5.30;99.90
64855;DHT22;51321;50.428;8.378;2023-04-02T16:41:29;5.40;99.90
64855;DHT22;51321;50.428;8.378;2023-04-02T16:44:18;5.40;99.90
64855;DHT22;51321;50.428;8.378;2023-04-02T16:47:13;5.40;99.90
64855;DHT22;51321;50.428;8.378;2023-04-02T16:49:59;5.50;99.90
64855;DHT22;51321;50.428;8.378;2023-04-02T16:52:43;5.50;99.90
64855;DHT22;51321;50.428;8.378;2023-04-02T16:55:31;5.40;99.90
64855;DHT22;51321;50.428;8.378;2023-04-02T16:58:20;5.40;99.90
64855;DHT22;51321;50.428;8.378;2023-04-02T17:01:04;5.40;99.90
64855;DHT22;51321;50.428;8.378;2023-04-02T17:03:54;5.40;99.90
64855;DHT22;51321;50.428;8.378;2023-04-02T17:06:46;5.50;99.90
64855;DHT22;51321;50.428;8.378;2023-04-02T17:09:29;5.50;99.90
64855;DHT22;51321;50.428;8.378;2023-04-02T17:12:13;5.50;99.90
64855;DHT22;51321;50.428;8.378;2023-04-02T17:14:56;5.50;99.90
64855;DHT22;51321;50.428;8.378;2023-04-02T17:17:38;5.40;99.90
64855;DHT22;51321;50.428;8.378;2023-04-02T17:20:21;5.50;99.90
64855;DHT22;51321;50.428;8.378;2023-04-02T17:23:04;5.40;99.90
64855;DHT22;51321;50.428;8.378;2023-04-02T17:25:47;5.30;99.90
64855;DHT22;51321;50.428;8.378;2023-04-02T17:28:30;5.20;99.90
64855;DHT22;51321;50.428;8.378;2023-04-02T17:31:16;5.20;99.90
64855;DHT22;51321;50.428;8.378;2023-04-02T17:33:57;5.20;99.90
64855;DHT22;51321;50.428;8.378;2023-04-02T17:36:40;5.20;99.90
64855;DHT22;51321;50.428;8.378;2023-04-02T17:39:28;5.20;99.90
64855;DHT22;51321;50.428;8.378;2023-04-02T17:42:17;5.30;99.90
64855;DHT22;51321;50.428;8.378;2023-04-02T17:45:01;5.20;99.90
64855;DHT22;51321;50.428;8.378;2023-04-02T17:47:45;5.30;99.90
64855;DHT22;51321;50.428;8.378;2023-04-02T17:50:37;5.20;99.90
64855;DHT22;51321;50.428;8.378;2023-04-02T17:53:20;5.30;99.90
64855;DHT22;51321;50.428;8.378;2023-04-02T17:56:12;5.40;99.90
64855;DHT22;51321;50.428;8.378;2023-04-02T17:59:01;5.30;99.90
64855;DHT22;51321;50.428;8.378;2023-04-02T18:01:48;5.40;99.90
64855;DHT22;51321;50.428;8.378;2023-04-02T18:04:33;5.40;99.90
64855;DHT22;51321;50.428;8.378;2023-04-02T18:07:23;5.40;99.90